Time;durP1;ratioP1;P1;durP2;ratioP2;P2;SDS_P1;SDS_P2;PMS_P1;PMS_P2;Temp;Humidity;BMP_temperature;BMP_pressure;BME280_temperature;BME280_humidity;BME280_pressure;Samples;Min_cycle;Max_cycle;Signal;HPM_P1;HPM_P2
2023/12/30 00:00:10;;;;;;;8.40;1.80;;;21.10;55.00;;;;;;8356935;28;20032;-47
2023/12/30 00:04:11;;;;;;;5.38;1.80;;;21.10;54.90;;;;;;8339892;28;20098;-46
2023/12/30 00:08:12;;;;;;;11.35;1.70;;;21.10;54.80;;;;;;8348678;28;20049;-46
2023/12/30 00:12:13;;;;;;;7.13;1.70;;;21.10;55.10;;;;;;8353348;28;20487;-48
2023/12/30 00:16:14;;;;;;;11.52;1.65;;;21.10;55.30;;;;;;8345289;28;20037;-46
2023/12/30 00:20:15;;;;;;;5.30;1.63;;;21.10;55.30;;;;;;8335422;28;20538;-46
2023/12/30 00:24:16;;;;;;;11.25;2.60;;;21.10;55.10;;;;;;8367649;28;20421;-46
2023/12/30 00:28:17;;;;;;;8.43;1.30;;;21.10;55.00;;;;;;8367049;28;20397;-47
2023/12/30 00:32:17;;;;;;;7.38;1.58;;;21.10;55.00;;;;;;8370033;28;20028;-47
2023/12/30 00:36:18;;;;;;;10.02;1.52;;;21.10;55.10;;;;;;8386111;28;20029;-46
2023/12/30 00:40:19;;;;;;;9.90;1.25;;;21.10;55.10;;;;;;8366577;28;20504;-47
2023/12/30 00:44:20;;;;;;;4.05;1.33;;;21.20;55.00;;;;;;8366790;28;20395;-47
2023/12/30 00:48:20;;;;;;;5.50;1.58;;;21.20;55.00;;;;;;8366011;28;20067;-47
2023/12/30 00:52:21;;;;;;;6.68;1.40;;;21.20;54.90;;;;;;8366369;28;20037;-48
2023/12/30 00:56:22;;;;;;;16.30;1.83;;;21.20;55.20;;;;;;8346230;28;20029;-46
2023/12/30 01:00:22;;;;;;;6.63;1.40;;;21.10;54.90;;;;;;8346883;28;20033;-47
2023/12/30 01:04:23;;;;;;;8.60;2.22;;;21.10;55.10;;;;;;8358629;28;20068;-47
2023/12/30 01:08:24;;;;;;;7.63;1.27;;;21.10;55.00;;;;;;8347581;28;20053;-47
2023/12/30 01:12:24;;;;;;;13.23;1.60;;;21.00;55.10;;;;;;8336732;28;20037;-44
2023/12/30 01:16:25;;;;;;;9.40;1.77;;;21.00;55.40;;;;;;8352833;28;20033;-45
2023/12/30 01:20:26;;;;;;;4.25;1.20;;;21.00;55.60;;;;;;8347653;28;20411;-48
2023/12/30 01:24:27;;;;;;;21.42;2.55;;;21.00;55.60;;;;;;8332307;28;20065;-45
2023/12/30 01:28:28;;;;;;;6.25;1.38;;;20.90;55.00;;;;;;8327912;28;20045;-48
2023/12/30 01:32:29;;;;;;;15.95;1.70;;;20.90;55.10;;;;;;8326803;28;20545;-49
2023/12/30 01:36:30;;;;;;;15.15;2.53;;;20.80;55.00;;;;;;8334835;28;20504;-45
2023/12/30 01:40:31;;;;;;;6.40;1.80;;;20.80;55.30;;;;;;8336260;28;20037;-45
2023/12/30 01:44:31;;;;;;;5.53;1.30;;;20.80;55.30;;;;;;8346235;28;20108;-47
2023/12/30 01:48:33;;;;;;;7.13;2.22;;;20.70;55.30;;;;;;8361425;28;20397;-49
2023/12/30 01:52:36;;;;;;;10.82;2.00;;;20.70;55.30;;;;;;8356575;28;20029;-47
2023/12/30 01:56:36;;;;;;;6.50;1.50;;;20.70;55.40;;;;;;8374119;28;20036;-47
2023/12/30 02:00:40;;;;;;;4.13;1.20;;;20.60;55.30;;;;;;8332555;28;20053;-46
2023/12/30 02:04:41;;;;;;;12.60;1.98;;;20.60;55.50;;;;;;8330374;28;20033;-45
2023/12/30 02:08:42;;;;;;;;;;;20.60;55.60;;;;;;8369776;28;20132;-46
2023/12/30 02:12:43;;;;;;;12.43;2.15;;;20.50;55.40;;;;;;8360755;28;19913;-47
2023/12/30 02:16:44;;;;;;;7.68;2.17;;;20.50;55.50;;;;;;8346638;28;20029;-46
2023/12/30 02:20:48;;;;;;;5.72;1.83;;;20.50;55.40;;;;;;8352396;28;20045;-45
2023/12/30 02:24:50;;;;;;;2.20;1.23;;;20.50;55.50;;;;;;8360379;28;20044;-44
2023/12/30 02:28:51;;;;;;;4.00;1.75;;;20.50;55.40;;;;;;8359885;28;20039;-47
2023/12/30 02:32:57;;;;;;;10.20;1.88;;;20.40;55.50;;;;;;8359959;28;20036;-45
2023/12/30 02:36:57;;;;;;;3.28;1.33;;;20.40;55.50;;;;;;8346913;28;20033;-46
2023/12/30 02:40:58;;;;;;;4.20;1.40;;;20.40;55.60;;;;;;8325900;28;20030;-46
2023/12/30 02:45:00;;;;;;;9.63;1.90;;;20.40;55.60;;;;;;8326919;28;20038;-45
2023/12/30 02:49:04;;;;;;;7.43;1.65;;;20.40;56.30;;;;;;8324564;28;20086;-46
2023/12/30 02:53:05;;;;;;;7.38;1.70;;;20.40;56.00;;;;;;8359078;28;20104;-45
2023/12/30 02:57:06;;;;;;;4.82;1.45;;;20.30;55.80;;;;;;8359701;28;20033;-45
2023/12/30 03:01:07;;;;;;;7.05;1.45;;;20.30;55.80;;;;;;8344189;28;20037;-45
2023/12/30 03:05:08;;;;;;;3.60;1.27;;;20.30;55.90;;;;;;8326865;28;20038;-47
2023/12/30 03:09:10;;;;;;;2.95;1.60;;;20.30;56.00;;;;;;8339065;28;20057;-45
2023/12/30 03:13:10;;;;;;;4.80;1.38;;;20.30;55.90;;;;;;8325342;28;20644;-47
2023/12/30 03:17:11;;;;;;;5.40;1.50;;;20.30;55.70;;;;;;8325232;28;20440;-45
2023/12/30 03:21:14;;;;;;;10.10;1.30;;;20.30;56.00;;;;;;8326734;28;20025;-47
2023/12/30 03:25:15;;;;;;;6.85;1.58;;;20.40;56.30;;;;;;8326349;28;20026;-45
2023/12/30 03:29:15;;;;;;;6.75;1.60;;;20.40;56.00;;;;;;8356135;28;20039;-45
2023/12/30 03:33:16;;;;;;;3.50;1.17;;;20.40;56.00;;;;;;8365957;28;20040;-48
2023/12/30 03:37:17;;;;;;;5.75;1.60;;;20.40;56.10;;;;;;8349943;28;20033;-49
2023/12/30 03:41:18;;;;;;;5.07;1.30;;;20.30;56.00;;;;;;8332784;28;20037;-46
2023/12/30 03:45:18;;;;;;;3.22;1.60;;;20.30;56.00;;;;;;8332824;28;20025;-45
2023/12/30 03:49:19;;;;;;;2.10;1.35;;;20.30;56.10;;;;;;8332559;28;20054;-47
2023/12/30 03:53:20;;;;;;;3.58;1.30;;;20.30;56.00;;;;;;8337060;28;20025;-46
2023/12/30 03:57:20;;;;;;;3.10;1.33;;;20.30;55.90;;;;;;8347520;28;20037;-46
2023/12/30 04:01:23;;;;;;;7.05;1.63;;;20.30;55.90;;;;;;8364928;28;20043;-46
2023/12/30 04:05:24;;;;;;;3.42;1.20;;;20.30;55.90;;;;;;8366710;28;20495;-46
2023/12/30 04:09:25;;;;;;;2.15;1.35;;;20.30;55.90;;;;;;8376026;28;20394;-47
2023/12/30 04:13:25;;;;;;;11.13;1.17;;;20.30;55.90;;;;;;8364737;28;20033;-47
2023/12/30 04:17:26;;;;;;;4.13;1.30;;;20.20;55.90;;;;;;8364926;28;20025;-49
2023/12/30 04:21:27;;;;;;;3.75;1.00;;;20.30;55.90;;;;;;8364676;28;20091;-48
2023/12/30 04:25:27;;;;;;;1.73;0.98;;;20.20;55.90;;;;;;8364699;28;20029;-48
2023/12/30 04:29:28;;;;;;;1.70;1.00;;;20.20;55.90;;;;;;8362974;28;20040;-47
2023/12/30 04:33:29;;;;;;;2.58;1.70;;;20.20;55.80;;;;;;8364258;28;20502;-47
2023/12/30 04:37:30;;;;;;;2.08;0.75;;;20.20;55.80;;;;;;8346457;28;20387;-48
2023/12/30 04:41:31;;;;;;;2.60;1.00;;;20.20;55.80;;;;;;8363035;28;20033;-46
2023/12/30 04:45:31;;;;;;;9.27;1.15;;;20.20;55.80;;;;;;8364116;28;20488;-45
2023/12/30 04:49:32;;;;;;;2.20;0.93;;;20.20;55.80;;;;;;8363937;28;20067;-46
2023/12/30 04:53:33;;;;;;;2.65;1.00;;;20.20;55.80;;;;;;8363702;28;20553;-46
2023/12/30 04:57:34;;;;;;;3.95;1.10;;;20.20;55.80;;;;;;8358701;28;20390;-45
2023/12/30 05:01:35;;;;;;;2.50;1.27;;;20.20;55.70;;;;;;8345149;28;20044;-46
2023/12/30 05:05:35;;;;;;;3.28;1.52;;;20.20;55.80;;;;;;8330277;28;20077;-44
2023/12/30 05:09:36;;;;;;;3.47;0.80;;;20.20;55.80;;;;;;8353807;28;20060;-45
2023/12/30 05:13:37;;;;;;;4.32;0.98;;;20.20;55.70;;;;;;8362981;28;20037;-46
2023/12/30 05:17:38;;;;;;;1.42;0.88;;;20.20;55.90;;;;;;8363018;28;20052;-45
2023/12/30 05:21:39;;;;;;;2.45;1.00;;;20.20;56.00;;;;;;8362793;28;20044;-45
2023/12/30 05:25:40;;;;;;;1.90;1.05;;;20.10;56.00;;;;;;8362694;28;20037;-46
2023/12/30 05:29:41;;;;;;;2.45;1.15;;;20.10;56.00;;;;;;8329605;28;20095;-46
2023/12/30 05:33:41;;;;;;;2.22;1.10;;;20.10;55.90;;;;;;8329519;28;20113;-45
2023/12/30 05:37:42;;;;;;;1.58;0.98;;;20.10;55.90;;;;;;8349006;28;20029;-46
2023/12/30 05:41:43;;;;;;;2.03;0.70;;;20.10;55.80;;;;;;8362165;28;20039;-45
2023/12/30 05:45:44;;;;;;;2.75;0.95;;;20.10;56.00;;;;;;8362255;28;20039;-46
2023/12/30 05:49:45;;;;;;;3.75;1.00;;;20.10;55.90;;;;;;8361749;28;20478;-46
2023/12/30 05:53:45;;;;;;;2.97;0.90;;;20.10;55.90;;;;;;8361485;28;20079;-48
2023/12/30 05:57:47;;;;;;;3.63;1.25;;;20.10;55.80;;;;;;8361653;28;20383;-48
2023/12/30 06:01:47;;;;;;;2.60;0.88;;;20.10;55.70;;;;;;8340580;28;20120;-47
2023/12/30 06:05:48;;;;;;;1.60;0.77;;;20.10;55.70;;;;;;8328162;28;20575;-47
2023/12/30 06:09:49;;;;;;;4.90;1.00;;;20.10;55.80;;;;;;8353355;28;20043;-47
2023/12/30 06:13:50;;;;;;;2.90;1.17;;;20.10;55.80;;;;;;8361154;28;20044;-48
2023/12/30 06:17:51;;;;;;;;;;;20.00;56.00;;;;;;8361336;28;20036;-48
2023/12/30 06:21:51;;;;;;;1.67;0.90;;;20.00;56.00;;;;;;8360540;28;20007;-47
2023/12/30 06:25:52;;;;;;;2.38;1.00;;;20.00;55.90;;;;;;8360709;28;20040;-47
2023/12/30 06:29:53;;;;;;;2.78;1.10;;;20.00;55.90;;;;;;8360837;28;20743;-47
2023/12/30 06:33:53;;;;;;;0.98;0.88;;;20.00;55.90;;;;;;8360251;28;20123;-47
2023/12/30 06:37:54;;;;;;;2.65;1.20;;;20.10;55.80;;;;;;8360470;28;20124;-47
2023/12/30 06:41:59;;;;;;;1.27;0.82;;;20.10;55.70;;;;;;8360250;28;20073;-48
2023/12/30 06:46:03;;;;;;;2.38;0.80;;;20.20;55.60;;;;;;8360377;28;20592;-47
2023/12/30 06:50:05;;;;;;;2.78;0.88;;;20.20;55.50;;;;;;8360111;28;20446;-47
2023/12/30 06:54:05;;;;;;;;;;;20.20;55.60;;;;;;8360083;28;20650;-48
2023/12/30 06:58:06;;;;;;;1.07;0.90;;;20.20;55.50;;;;;;8359710;28;19948;-48
2023/12/30 07:02:09;;;;;;;2.22;1.00;;;20.20;55.50;;;;;;8359568;28;20128;-45
2023/12/30 07:06:09;;;;;;;3.03;0.68;;;20.20;55.50;;;;;;8354351;28;20068;-47
2023/12/30 07:10:11;;;;;;;2.55;0.93;;;20.20;55.60;;;;;;8359682;28;20064;-46
2023/12/30 07:14:11;;;;;;;;;;;20.20;55.60;;;;;;8360072;28;20083;-47
2023/12/30 07:18:12;;;;;;;1.23;0.93;;;20.20;55.50;;;;;;8359466;28;19909;-46
2023/12/30 07:22:13;;;;;;;0.70;0.60;;;20.20;55.40;;;;;;8359471;28;20033;-47
2023/12/30 07:26:13;;;;;;;3.30;0.88;;;20.20;55.40;;;;;;8358078;28;20124;-45
2023/12/30 07:30:14;;;;;;;1.05;0.95;;;20.20;55.40;;;;;;8357912;28;20524;-46
2023/12/30 07:34:17;;;;;;;1.42;0.95;;;20.30;55.60;;;;;;8358057;28;20083;-45
2023/12/30 07:38:17;;;;;;;1.20;0.70;;;20.20;55.40;;;;;;8359221;28;20364;-46
2023/12/30 07:42:18;;;;;;;1.63;1.10;;;20.20;55.60;;;;;;8358818;28;20402;-45
2023/12/30 07:46:19;;;;;;;3.20;0.90;;;20.30;55.50;;;;;;8359106;28;20041;-46
2023/12/30 07:50:21;;;;;;;2.50;0.90;;;20.30;55.50;;;;;;8359031;28;20407;-46
2023/12/30 07:54:22;;;;;;;1.80;1.08;;;20.30;55.40;;;;;;8358645;28;20040;-44
2023/12/30 07:58:23;;;;;;;4.55;0.88;;;20.30;55.30;;;;;;8357597;28;20479;-45
2023/12/30 08:02:23;;;;;;;1.05;0.90;;;20.30;55.40;;;;;;8358683;28;20087;-45
2023/12/30 08:06:24;;;;;;;2.47;1.15;;;20.30;55.40;;;;;;8357648;28;20063;-46
2023/12/30 08:10:25;;;;;;;0.68;0.60;;;20.30;55.60;;;;;;8346065;28;20452;-47
2023/12/30 08:14:26;;;;;;;1.58;0.70;;;20.30;55.40;;;;;;8357257;28;20688;-48
2023/12/30 08:18:26;;;;;;;0.77;0.63;;;20.30;55.50;;;;;;8361857;28;20118;-46
2023/12/30 08:22:28;;;;;;;0.93;0.57;;;20.20;55.30;;;;;;8364487;28;20526;-47
2023/12/30 08:26:29;;;;;;;2.80;0.82;;;20.30;55.30;;;;;;8364218;28;20037;-45
2023/12/30 08:30:30;;;;;;;1.50;0.80;;;20.30;55.50;;;;;;8363156;28;20040;-46
2023/12/30 08:34:30;;;;;;;1.20;0.70;;;20.30;55.40;;;;;;8363993;28;20029;-45
2023/12/30 08:38:31;;;;;;;2.75;0.70;;;20.20;55.40;;;;;;8362835;28;20466;-46
2023/12/30 08:42:34;;;;;;;1.90;0.85;;;20.30;55.40;;;;;;8364102;28;20065;-45
2023/12/30 08:46:35;;;;;;;1.60;0.80;;;20.30;55.50;;;;;;8363711;28;20063;-47
2023/12/30 08:50:36;;;;;;;1.58;0.85;;;20.20;55.30;;;;;;8363726;28;20667;-47
2023/12/30 08:54:39;;;;;;;1.38;0.70;;;20.20;55.40;;;;;;8353607;28;20582;-46
2023/12/30 08:58:39;;;;;;;0.93;0.60;;;20.20;55.30;;;;;;8339153;28;20703;-46
2023/12/30 09:02:47;;;;;;;1.48;0.68;;;20.20;55.20;;;;;;8330550;28;20566;-45
2023/12/30 09:06:47;;;;;;;2.08;0.70;;;20.20;55.20;;;;;;8330325;28;20053;-47
2023/12/30 09:10:48;;;;;;;1.45;0.90;;;20.20;55.70;;;;;;8340888;28;20040;-47
2023/12/30 09:14:49;;;;;;;1.40;0.70;;;20.20;55.30;;;;;;8333638;28;20446;-47
2023/12/30 09:18:50;;;;;;;0.85;0.68;;;20.20;55.30;;;;;;8330076;28;20052;-48
2023/12/30 09:22:51;;;;;;;1.80;0.55;;;20.20;55.40;;;;;;8330042;28;20040;-46
2023/12/30 09:26:52;;;;;;;1.67;0.60;;;20.20;55.30;;;;;;8339579;28;20063;-46
2023/12/30 09:30:53;;;;;;;1.35;0.57;;;20.20;55.40;;;;;;8362072;28;20037;-46
2023/12/30 09:34:53;;;;;;;1.30;0.73;;;20.20;55.40;;;;;;8362446;28;20037;-47
2023/12/30 09:38:54;;;;;;;1.13;0.90;;;20.20;55.20;;;;;;8361988;28;20041;-46
2023/12/30 09:43:05;;;;;;;0.93;0.63;;;20.20;55.10;;;;;;8361196;28;20037;-47
2023/12/30 09:47:10;;;;;;;3.58;0.88;;;20.30;55.20;;;;;;8362225;28;20029;-46
2023/12/30 09:51:10;;;;;;;0.95;0.75;;;20.20;55.30;;;;;;8361898;28;20386;-49
2023/12/30 09:55:11;;;;;;;0.60;0.40;;;20.20;55.50;;;;;;8361482;28;20108;-46
2023/12/30 09:59:12;;;;;;;2.20;0.70;;;20.20;55.40;;;;;;8361992;28;20036;-46
2023/12/30 10:03:14;;;;;;;1.15;0.80;;;20.20;55.40;;;;;;8361810;28;20032;-49
2023/12/30 10:07:16;;;;;;;0.60;0.60;;;20.20;55.40;;;;;;8361279;28;20462;-45
2023/12/30 10:11:16;;;;;;;;;;;20.20;55.60;;;;;;8360893;28;20033;-47
2023/12/30 10:15:17;;;;;;;1.30;0.80;;;20.30;55.60;;;;;;8360052;28;19909;-47
2023/12/30 10:19:18;;;;;;;0.93;0.60;;;20.20;55.50;;;;;;8355599;28;20078;-46
2023/12/30 10:23:19;;;;;;;0.80;0.60;;;20.20;55.50;;;;;;8360177;28;20032;-49
2023/12/30 10:27:21;;;;;;;0.50;0.50;;;20.20;55.40;;;;;;8360761;28;20547;-45
2023/12/30 10:31:23;;;;;;;0.90;0.65;;;20.20;55.40;;;;;;8361140;28;20112;-45
2023/12/30 10:35:24;;;;;;;0.80;0.60;;;20.20;55.60;;;;;;8360883;28;20734;-46
2023/12/30 10:39:26;;;;;;;2.13;0.70;;;20.10;55.40;;;;;;8359937;28;20271;-48
2023/12/30 10:43:27;;;;;;;1.00;0.60;;;20.20;55.50;;;;;;8360711;28;20037;-46
2023/12/30 10:47:30;;;;;;;2.47;0.80;;;20.10;55.30;;;;;;8350303;28;20037;-46
2023/12/30 10:51:34;;;;;;;1.50;1.10;;;20.10;55.50;;;;;;8339271;28;20437;-46
2023/12/30 10:55:39;;;;;;;4.00;0.73;;;20.20;55.50;;;;;;8336249;28;20025;-46
2023/12/30 10:59:45;;;;;;;2.42;0.60;;;20.20;55.40;;;;;;8337421;28;20033;-47
2023/12/30 11:03:46;;;;;;;0.90;0.70;;;20.20;55.30;;;;;;8326871;28;20022;-45
2023/12/30 11:07:47;;;;;;;7.00;0.80;;;20.20;55.40;;;;;;8344455;28;20518;-47
2023/12/30 11:11:52;;;;;;;0.70;0.50;;;20.20;55.50;;;;;;8359680;28;20441;-46
2023/12/30 11:15:54;;;;;;;1.40;0.55;;;20.20;55.30;;;;;;8360109;28;20025;-46
2023/12/30 11:20:15;;;;;;;0.82;0.60;;;20.20;55.30;;;;;;8337776;28;20433;-44
2023/12/30 11:24:18;;;;;;;6.00;0.80;;;20.20;55.10;;;;;;8338302;28;20033;-46
2023/12/30 11:28:20;;;;;;;1.85;1.00;;;20.20;55.40;;;;;;8354682;28;20554;-48
2023/12/30 11:32:22;;;;;;;16.75;1.70;;;20.20;55.10;;;;;;8335104;28;20040;-47
2023/12/30 11:36:23;;;;;;;11.30;1.17;;;20.20;54.90;;;;;;8330927;28;20040;-46
2023/12/30 11:40:28;;;;;;;4.88;1.30;;;20.00;54.50;;;;;;8336664;28;20061;-45
2023/12/30 11:44:29;;;;;;;2.38;1.42;;;19.80;53.20;;;;;;8334915;28;20564;-51
2023/12/30 11:48:29;;;;;;;5.85;1.48;;;19.70;52.80;;;;;;8348013;28;20044;-48
2023/12/30 11:52:30;;;;;;;5.95;2.00;;;19.70;52.00;;;;;;8339841;28;20045;-47
2023/12/30 11:56:31;;;;;;;3.92;1.63;;;19.70;51.00;;;;;;8339228;28;20021;-46
2023/12/30 12:00:32;;;;;;;6.38;1.95;;;19.70;50.20;;;;;;8339468;28;20041;-48
2023/12/30 12:04:32;;;;;;;6.82;1.90;;;19.70;49.40;;;;;;8346415;28;20042;-47
2023/12/30 12:08:33;;;;;;;5.38;2.00;;;19.70;48.40;;;;;;8334458;28;20048;-46
2023/12/30 12:12:38;;;;;;;2.72;1.52;;;19.80;48.00;;;;;;8348438;28;20029;-48
2023/12/30 12:16:39;;;;;;;2.60;1.73;;;19.80;47.30;;;;;;8357547;28;20303;-48
2023/12/30 12:20:42;;;;;;;6.68;1.63;;;19.90;47.10;;;;;;8352515;28;20102;-46
2023/12/30 12:24:43;;;;;;;8.60;1.83;;;20.10;47.10;;;;;;8350067;28;20103;-50
2023/12/30 12:28:45;;;;;;;3.40;1.60;;;20.20;47.40;;;;;;8354056;28;20530;-47
2023/12/30 12:32:45;;;;;;;;;;;20.40;47.90;;;;;;8331959;28;20041;-45
2023/12/30 12:36:46;;;;;;;3.47;1.60;;;20.30;49.00;;;;;;8331008;28;19952;-48
2023/12/30 12:40:47;;;;;;;7.03;2.05;;;20.20;49.60;;;;;;8343351;28;20041;-48
2023/12/30 12:44:48;;;;;;;5.85;1.60;;;20.30;49.30;;;;;;8344111;28;20044;-46
2023/12/30 12:48:48;;;;;;;6.22;1.63;;;20.40;49.10;;;;;;8345432;28;20069;-45
2023/12/30 12:52:49;;;;;;;2.72;1.88;;;20.50;49.20;;;;;;8349776;28;20042;-47
2023/12/30 12:56:50;;;;;;;5.95;1.58;;;20.50;49.10;;;;;;8346378;28;20041;-47
2023/12/30 13:00:50;;;;;;;1.92;1.20;;;20.50;49.20;;;;;;8355731;28;20060;-49
2023/12/30 13:04:52;;;;;;;5.57;1.85;;;20.60;49.30;;;;;;8329460;28;20033;-47
2023/12/30 13:08:56;;;;;;;5.03;1.38;;;20.60;49.40;;;;;;8342251;28;20563;-46
2023/12/30 13:12:57;;;;;;;5.32;1.60;;;20.60;49.30;;;;;;8352135;28;20025;-48
2023/12/30 13:17:00;;;;;;;3.45;1.10;;;20.70;49.30;;;;;;8356880;28;20086;-49
2023/12/30 13:21:05;;;;;;;4.68;1.52;;;20.70;49.60;;;;;;8330064;28;20044;-49
2023/12/30 13:25:09;;;;;;;4.28;1.50;;;20.60;50.40;;;;;;8336681;28;20030;-47
2023/12/30 13:29:11;;;;;;;3.70;1.40;;;20.50;50.80;;;;;;8334495;28;20037;-46
2023/12/30 13:33:16;;;;;;;2.05;1.17;;;20.60;50.50;;;;;;8335248;28;20033;-47
2023/12/30 13:37:16;;;;;;;6.72;1.88;;;20.70;50.30;;;;;;8361832;28;20033;-48
2023/12/30 13:41:22;;;;;;;5.38;1.85;;;20.70;49.90;;;;;;8353747;28;20069;-47
2023/12/30 13:45:22;;;;;;;6.40;1.33;;;20.70;49.70;;;;;;8353231;28;20044;-47
2023/12/30 13:49:59;;;;;;;5.15;1.42;;;20.80;49.50;;;;;;8337590;28;20536;-47
2023/12/30 13:53:52;;;;;;;4.70;1.25;;;20.80;49.50;;;;;;8338088;28;20041;-47
2023/12/30 13:57:53;;;;;;;5.70;1.17;;;20.80;49.40;;;;;;8345409;28;20029;-49
2023/12/30 14:01:56;;;;;;;4.43;1.30;;;20.80;50.10;;;;;;8335399;28;20033;-47
2023/12/30 14:05:58;;;;;;;4.63;1.30;;;20.80;49.70;;;;;;8360286;28;20106;-48
2023/12/30 14:10:00;;;;;;;5.72;1.60;;;20.90;50.00;;;;;;8354118;28;20044;-46
2023/12/30 14:14:04;;;;;;;6.65;1.20;;;20.70;50.80;;;;;;8343667;28;20045;-47
2023/12/30 14:18:05;;;;;;;7.35;1.27;;;20.60;51.20;;;;;;8344595;28;20064;-48
2023/12/30 14:22:07;;;;;;;11.30;1.70;;;20.70;50.80;;;;;;8344713;28;20051;-47
2023/12/30 14:26:08;;;;;;;7.78;1.70;;;20.70;50.40;;;;;;8337309;28;20148;-47
2023/12/30 14:30:11;;;;;;;5.47;1.30;;;20.80;50.30;;;;;;8339726;28;20414;-44
2023/12/30 14:34:12;;;;;;;11.32;1.58;;;20.80;50.60;;;;;;8344966;28;20163;-46
2023/12/30 14:38:13;;;;;;;7.85;1.77;;;20.90;50.10;;;;;;8352767;28;20516;-45
2023/12/30 14:42:15;;;;;;;7.45;1.48;;;20.90;50.00;;;;;;8354144;28;20391;-44
2023/12/30 14:46:17;;;;;;;7.88;1.30;;;20.90;50.10;;;;;;8357047;28;20029;-44
2023/12/30 14:50:18;;;;;;;6.95;1.38;;;20.90;49.90;;;;;;8358965;28;20025;-44
2023/12/30 14:54:18;;;;;;;4.40;1.35;;;20.90;49.90;;;;;;8344594;28;20030;-45
2023/12/30 14:58:19;;;;;;;5.40;1.48;;;21.00;50.00;;;;;;8337622;28;20439;-42
2023/12/30 15:02:20;;;;;;;4.57;1.33;;;21.00;50.70;;;;;;8351458;28;20052;-44
2023/12/30 15:06:21;;;;;;;5.82;1.48;;;20.90;51.60;;;;;;8333063;28;20076;-45
2023/12/30 15:10:21;;;;;;;7.10;1.33;;;20.80;51.50;;;;;;8347844;28;20060;-45
2023/12/30 15:14:22;;;;;;;15.35;1.80;;;20.90;51.10;;;;;;8343456;28;20072;-44
2023/12/30 15:18:23;;;;;;;5.53;1.55;;;20.90;50.80;;;;;;8349801;28;20049;-45
2023/12/30 15:22:26;;;;;;;6.82;2.28;;;21.00;50.70;;;;;;8348099;28;20041;-47
2023/12/30 15:26:27;;;;;;;5.60;1.45;;;21.00;50.60;;;;;;8348274;28;20037;-47
2023/12/30 15:30:28;;;;;;;7.97;1.58;;;21.00;50.40;;;;;;8340739;28;20079;-47
2023/12/30 15:34:28;;;;;;;3.88;1.25;;;21.10;50.40;;;;;;8344235;28;20486;-47
2023/12/30 15:38:31;;;;;;;3.80;1.52;;;21.20;50.60;;;;;;8357018;28;20090;-47
2023/12/30 15:42:32;;;;;;;2.03;1.38;;;21.20;50.50;;;;;;8346024;28;20025;-47
2023/12/30 15:46:35;;;;;;;5.65;1.33;;;21.30;50.20;;;;;;8352167;28;20506;-49
2023/12/30 15:50:36;;;;;;;7.40;1.20;;;21.40;50.20;;;;;;8361131;28;20407;-45
2023/12/30 15:54:39;;;;;;;8.65;1.35;;;21.50;50.00;;;;;;8349358;28;20064;-46
2023/12/30 15:58:40;;;;;;;10.05;1.73;;;21.50;49.90;;;;;;8359943;28;20072;-46
2023/12/30 16:02:41;;;;;;;3.90;1.23;;;21.50;49.90;;;;;;8352876;28;20048;-45
2023/12/30 16:06:42;;;;;;;3.20;1.15;;;21.50;49.90;;;;;;8360765;28;20037;-47
2023/12/30 16:10:42;;;;;;;8.93;1.25;;;21.50;49.80;;;;;;8355108;28;20045;-45
2023/12/30 16:14:44;;;;;;;11.15;1.35;;;21.50;49.80;;;;;;8359196;28;20425;-45
2023/12/30 16:18:45;;;;;;;6.38;1.55;;;21.50;49.40;;;;;;8356864;28;20046;-46
2023/12/30 16:22:46;;;;;;;5.25;1.50;;;21.60;49.30;;;;;;8354376;28;20061;-44
2023/12/30 16:26:47;;;;;;;;;;;21.50;49.60;;;;;;8338710;28;20481;-47
2023/12/30 16:30:48;;;;;;;3.10;1.10;;;21.50;49.40;;;;;;8354492;28;19913;-51
2023/12/30 16:34:49;;;;;;;2.72;1.38;;;21.50;49.30;;;;;;8346957;28;20075;-47
2023/12/30 16:38:51;;;;;;;6.35;1.55;;;21.60;49.40;;;;;;8351718;28;20084;-49
2023/12/30 16:42:51;;;;;;;6.43;1.52;;;21.60;49.30;;;;;;8362273;28;20033;-48
2023/12/30 16:46:52;;;;;;;10.70;2.80;;;21.70;49.50;;;;;;8343759;28;20040;-46
2023/12/30 16:50:53;;;;;;;15.23;2.28;;;21.70;49.40;;;;;;8347153;28;20095;-44
2023/12/30 16:54:53;;;;;;;10.90;1.75;;;21.60;50.00;;;;;;8349507;28;20045;-44
2023/12/30 16:58:58;;;;;;;9.02;1.90;;;21.50;50.00;;;;;;8350351;28;20068;-45
2023/12/30 17:02:59;;;;;;;5.57;1.40;;;21.70;50.80;;;;;;8356839;28;20502;-46
2023/12/30 17:06:59;;;;;;;12.52;1.80;;;21.70;50.50;;;;;;8363671;28;20414;-50
2023/12/30 17:11:00;;;;;;;372.20;65.85;;;21.70;49.80;;;;;;8357725;28;20098;-46
2023/12/30 17:15:01;;;;;;;610.63;154.32;;;21.70;50.40;;;;;;8349525;28;20053;-45
2023/12/30 17:19:01;;;;;;;374.20;98.32;;;21.30;49.50;;;;;;8359448;28;20502;-46
2023/12/30 17:23:05;;;;;;;164.52;45.72;;;20.70;47.80;;;;;;8363485;28;20048;-47
2023/12/30 17:27:05;;;;;;;93.75;25.75;;;20.20;46.80;;;;;;8356810;28;20021;-49
2023/12/30 17:31:08;;;;;;;61.38;19.02;;;20.20;45.80;;;;;;8363774;28;20028;-45
2023/12/30 17:35:08;;;;;;;55.72;16.55;;;20.30;45.60;;;;;;8361568;28;20052;-47
2023/12/30 17:39:09;;;;;;;53.15;15.05;;;20.70;45.20;;;;;;8360350;28;20036;-48
2023/12/30 17:43:10;;;;;;;38.58;13.10;;;20.90;45.40;;;;;;8360349;28;20031;-53
2023/12/30 17:47:11;;;;;;;42.10;13.50;;;21.10;45.30;;;;;;8356316;28;20112;-46
2023/12/30 17:51:11;;;;;;;37.95;12.07;;;21.20;45.20;;;;;;8362750;28;20551;-47
2023/12/30 17:55:12;;;;;;;42.22;12.13;;;21.20;45.40;;;;;;8348579;28;20068;-50
2023/12/30 17:59:13;;;;;;;37.67;11.75;;;21.20;45.30;;;;;;8360190;28;20513;-45
2023/12/30 18:03:14;;;;;;;34.40;10.68;;;21.20;45.10;;;;;;8358218;28;20035;-44
2023/12/30 18:07:15;;;;;;;36.28;11.30;;;21.30;45.20;;;;;;8352500;28;20391;-48
2023/12/30 18:11:16;;;;;;;26.58;9.77;;;21.20;45.60;;;;;;8353710;28;20114;-50
2023/12/30 18:15:17;;;;;;;27.50;8.75;;;21.30;45.80;;;;;;8341767;28;20049;-53
2023/12/30 18:19:18;;;;;;;34.95;10.10;;;21.30;45.70;;;;;;8361748;28;20037;-50
2023/12/30 18:23:19;;;;;;;25.40;9.10;;;21.30;45.90;;;;;;8346865;28;20025;-47
2023/12/30 18:27:22;;;;;;;21.58;7.78;;;21.30;45.90;;;;;;8344356;28;20037;-46
2023/12/30 18:31:23;;;;;;;19.95;7.57;;;21.30;45.90;;;;;;8362800;28;20264;-47
2023/12/30 18:35:24;;;;;;;21.42;7.63;;;21.30;46.10;;;;;;8341481;28;20502;-46
2023/12/30 18:39:25;;;;;;;19.45;8.30;;;21.30;46.30;;;;;;8329700;28;20061;-47
2023/12/30 18:43:25;;;;;;;19.10;7.30;;;21.40;46.40;;;;;;8329690;28;20041;-47
2023/12/30 18:47:26;;;;;;;18.15;6.93;;;21.50;46.60;;;;;;8354257;28;20552;-45
2023/12/30 18:51:27;;;;;;;16.17;7.28;;;21.50;46.80;;;;;;8342676;28;20037;-45
2023/12/30 18:55:28;;;;;;;18.23;7.95;;;21.60;47.10;;;;;;8347208;28;20445;-45
2023/12/30 18:59:28;;;;;;;18.98;6.50;;;21.50;47.30;;;;;;8346888;28;20041;-45
2023/12/30 19:03:29;;;;;;;14.38;6.57;;;21.60;47.30;;;;;;8343992;28;20056;-45
2023/12/30 19:07:31;;;;;;;19.48;7.15;;;21.60;47.60;;;;;;8341551;28;20045;-46
2023/12/30 19:11:31;;;;;;;14.77;6.22;;;21.60;47.50;;;;;;8342605;28;20094;-47
2023/12/30 19:15:32;;;;;;;11.63;6.68;;;21.70;47.60;;;;;;8343655;28;20030;-46
2023/12/30 19:19:33;;;;;;;25.17;6.40;;;21.70;48.30;;;;;;8344737;28;20060;-48
2023/12/30 19:23:35;;;;;;;16.08;6.38;;;21.80;48.40;;;;;;8359941;28;20545;-45
2023/12/30 19:27:36;;;;;;;15.30;6.28;;;21.80;48.20;;;;;;8357046;28;20030;-46
2023/12/30 19:31:36;;;;;;;18.98;6.88;;;21.70;48.20;;;;;;8330583;28;20052;-46
2023/12/30 19:35:39;;;;;;;18.00;6.45;;;21.80;48.40;;;;;;8328711;28;20049;-47
2023/12/30 19:39:40;;;;;;;19.15;6.43;;;21.70;48.30;;;;;;8343355;28;20047;-46
2023/12/30 19:43:41;;;;;;;18.33;6.68;;;21.70;48.40;;;;;;8341402;28;20049;-45
2023/12/30 19:47:41;;;;;;;13.30;5.95;;;21.80;48.60;;;;;;8346653;28;20041;-46
2023/12/30 19:51:42;;;;;;;16.33;5.53;;;21.80;48.70;;;;;;8335822;28;20033;-45
2023/12/30 19:55:45;;;;;;;;;;;21.80;48.60;;;;;;8352976;28;20506;-46
2023/12/30 19:59:45;;;;;;;15.20;6.45;;;21.80;48.70;;;;;;8328124;28;19945;-46
2023/12/30 20:03:46;;;;;;;13.52;6.03;;;21.80;48.40;;;;;;8327634;28;20037;-46
2023/12/30 20:07:47;;;;;;;16.65;6.25;;;21.80;49.10;;;;;;8327974;28;20067;-46
2023/12/30 20:11:49;;;;;;;12.88;6.07;;;21.80;48.60;;;;;;8340918;28;20486;-47
2023/12/30 20:15:50;;;;;;;14.20;5.93;;;21.80;48.60;;;;;;8334462;28;20033;-47
2023/12/30 20:19:51;;;;;;;17.25;6.10;;;21.80;48.90;;;;;;8332906;28;20037;-48
2023/12/30 20:23:51;;;;;;;10.93;5.70;;;21.80;49.00;;;;;;8347081;28;20372;-46
2023/12/30 20:27:52;;;;;;;28.50;6.43;;;21.80;49.00;;;;;;8344419;28;20041;-46
2023/12/30 20:31:53;;;;;;;16.00;5.00;;;21.80;49.00;;;;;;8336125;28;20037;-53
2023/12/30 20:35:53;;;;;;;16.85;6.10;;;21.90;49.60;;;;;;8343193;28;20068;-47
2023/12/30 20:39:54;;;;;;;14.70;5.40;;;21.90;49.00;;;;;;8366077;28;20520;-48
2023/12/30 20:43:55;;;;;;;17.90;5.53;;;21.90;49.00;;;;;;8366246;28;20398;-45
2023/12/30 20:47:56;;;;;;;17.80;5.00;;;21.80;49.00;;;;;;8365440;28;20060;-47
2023/12/30 20:51:56;;;;;;;18.90;5.28;;;21.80;49.00;;;;;;8347061;28;20041;-47